Search for airport 
image banner adimage banner adimage banner ad
image banner ad

9PA8 - Thomas Jefferson University Hospital

Located in Philadelphia, United States

ICAO - 9PA8, IATA -

Data provided by Airmate  

General information

Coordinates: N39°56'56" W75°9'31"
Elevation is 253 feet MSL.
Magnetic variation is -11° East
View others Airports in Pennsylvania

Operational data

Special qualification required
Current time UTC:
Current local time:
Weather at : KPHL - Philadelphia Intl ( 11 km )
METAR: KPHL 061254Z 35014G24KT 10SM FEW036 FEW045 13/03 A3001 RMK AO2 SLP161 T01280033
TAF: KPHL 061306Z 0613/0718 32012G20KT P6SM SCT050 FM062000 32008KT P6SM FEW050 FM070200 VRB03KT P6SM BKN100
View NOTAMs / SUP AIP / TFR affecting this airport [VIEW]
Communications frequencies: [VIEW]

Runways:

Airport contact information

Address: Philadelphia United States

Satellite view of 9PA8